Time;durP1;ratioP1;P1;durP2;ratioP2;P2;SDS_P1;SDS_P2;PMS_P1;PMS_P2;Temp;Humidity;BMP_temperature;BMP_pressure;BME280_temperature;BME280_humidity;BME280_pressure;Samples;Min_cycle;Max_cycle;Signal;HPM_P1;HPM_P2
2021/09/05 00:00:38;;;;;;;28.42;15.88;;;;;;;25.61;46.60;101720.91;4991593;28;20049;-78
2021/09/05 00:03:03;;;;;;;24.23;15.95;;;;;;;25.64;46.33;101720.16;4991356;28;20504;-78
2021/09/05 00:05:29;;;;;;;18.58;14.15;;;;;;;25.62;46.25;101717.75;4991404;28;20026;-78
2021/09/05 00:07:56;;;;;;;23.40;14.73;;;;;;;25.60;46.46;101717.31;4991418;28;20022;-82
2021/09/05 00:10:21;;;;;;;22.05;15.35;;;;;;;25.59;46.78;101718.53;4991356;28;20079;-79
2021/09/05 00:12:47;;;;;;;30.73;16.60;;;;;;;25.60;46.71;101720.13;4991291;28;20480;-81
2021/09/05 00:15:13;;;;;;;21.50;14.80;;;;;;;25.60;46.84;101716.53;4990905;28;20030;-78
2021/09/05 00:17:39;;;;;;;20.65;14.30;;;;;;;25.60;46.69;101716.53;4991141;28;20034;-80
2021/09/05 00:20:06;;;;;;;21.67;16.30;;;;;;;25.59;46.90;101714.91;4991122;28;20054;-78
2021/09/05 00:22:32;;;;;;;22.83;15.35;;;;;;;25.66;46.78;101712.97;4991084;28;20030;-78
2021/09/05 00:24:58;;;;;;;26.48;15.80;;;;;;;25.61;46.93;101712.53;4990801;28;20054;-78
2021/09/05 00:27:24;;;;;;;21.75;16.52;;;;;;;25.61;46.98;101706.94;4990018;28;20033;-82
2021/09/05 00:29:49;;;;;;;24.58;16.27;;;;;;;25.57;47.31;101714.53;4991090;28;20698;-78
2021/09/05 00:32:15;;;;;;;26.33;16.17;;;;;;;25.55;46.83;101706.53;4990989;28;20048;-79
2021/09/05 00:34:40;;;;;;;23.55;16.75;;;;;;;25.55;47.07;101711.31;4991085;28;20037;-79
2021/09/05 00:37:06;;;;;;;21.67;16.13;;;;;;;25.55;46.86;101702.94;4990972;28;20079;-78
2021/09/05 00:39:32;;;;;;;31.95;17.27;;;;;;;25.47;46.92;101702.09;4990982;28;20061;-78
2021/09/05 00:41:57;;;;;;;25.92;16.45;;;;;;;25.43;47.23;101704.06;4990865;28;20099;-77
2021/09/05 00:44:23;;;;;;;22.00;15.60;;;;;;;25.42;47.11;101700.47;4990777;28;20034;-77
2021/09/05 00:46:49;;;;;;;26.48;16.73;;;;;;;25.43;46.90;101699.25;4990858;28;20042;-81
2021/09/05 00:49:14;;;;;;;20.65;16.45;;;;;;;25.41;47.19;101703.66;4989329;28;20115;-79
2021/09/05 00:51:42;;;;;;;21.52;15.55;;;;;;;25.42;47.31;101694.84;4990701;28;20164;-81
2021/09/05 00:54:10;;;;;;;25.73;17.25;;;;;;;25.50;46.97;101690.09;4990851;28;20079;-81
2021/09/05 00:56:38;;;;;;;20.80;16.02;;;;;;;25.50;46.68;101695.69;4990701;28;20645;-78
2021/09/05 00:59:07;;;;;;;22.88;16.75;;;;;;;25.51;46.69;101688.09;4990623;28;20103;-80
2021/09/05 01:01:34;;;;;;;23.93;16.97;;;;;;;25.57;46.94;101694.94;4990496;28;20023;-79
2021/09/05 01:03:59;;;;;;;22.60;15.85;;;;;;;25.49;46.75;101691.31;4990691;28;20026;-78
2021/09/05 01:06:25;;;;;;;19.52;15.02;;;;;;;25.46;47.07;101690.06;4990382;28;20591;-81
2021/09/05 01:08:52;;;;;;;20.08;15.70;;;;;;;25.57;46.89;101689.34;4990516;28;20026;-82
2021/09/05 01:11:18;;;;;;;27.55;17.00;;;;;;;25.59;46.58;101690.53;4989164;28;20033;-80
2021/09/05 01:13:46;;;;;;;23.45;16.52;;;;;;;25.66;46.43;101678.56;4989499;28;20455;-78
2021/09/05 01:16:32;;;;;;;23.45;16.25;;;;;;;25.64;46.81;101683.78;4990215;28;20113;-78
2021/09/05 01:19:10;;;;;;;26.83;17.25;;;;;;;25.69;46.32;101674.97;4990293;28;20037;-82
2021/09/05 01:21:37;;;;;;;26.35;16.33;;;;;;;25.64;46.68;101686.56;4990346;28;20045;-78
2021/09/05 01:24:04;;;;;;;24.52;16.60;;;;;;;25.67;46.33;101675.38;4990124;28;20030;-78
2021/09/05 01:26:31;;;;;;;24.02;15.77;;;;;;;25.60;46.94;101680.16;4989082;28;20058;-78
2021/09/05 01:28:57;;;;;;;21.75;15.52;;;;;;;25.62;46.49;101686.16;4990174;28;20026;-78
2021/09/05 01:31:25;;;;;;;27.58;17.58;;;;;;;25.63;46.75;101682.97;4989180;28;20163;-79
2021/09/05 01:33:51;;;;;;;25.00;16.95;;;;;;;25.67;46.58;101677.38;4990081;28;20469;-77
2021/09/05 01:36:17;;;;;;;20.38;15.43;;;;;;;25.65;46.81;101690.97;4990035;28;20030;-79
2021/09/05 01:38:42;;;;;;;20.08;15.02;;;;;;;25.66;46.52;101675.78;4990288;28;20105;-81
2021/09/05 01:41:08;;;;;;;22.92;15.95;;;;;;;25.67;46.57;101674.56;4989951;28;20030;-78
2021/09/05 01:43:34;;;;;;;28.85;16.90;;;;;;;25.71;46.46;101678.22;4990070;28;20420;-81
2021/09/05 01:45:59;;;;;;;22.52;15.68;;;;;;;25.57;46.93;101678.16;4989923;28;20038;-80
2021/09/05 01:48:25;;;;;;;24.92;16.50;;;;;;;25.61;46.74;101681.75;4988782;28;20030;-78
2021/09/05 01:50:51;;;;;;;19.25;15.60;;;;;;;25.64;46.50;101678.97;4989676;28;20034;-78
2021/09/05 01:53:16;;;;;;;25.88;17.08;;;;;;;25.62;46.44;101672.19;4989987;28;20030;-79
2021/09/05 01:55:42;;;;;;;19.73;14.98;;;;;;;25.61;46.46;101674.16;4989881;28;20026;-82
2021/09/05 01:58:08;;;;;;;19.13;14.38;;;;;;;25.61;46.02;101676.94;4989943;28;20042;-78
2021/09/05 02:00:33;;;;;;;19.90;14.50;;;;;;;25.58;46.33;101674.16;4989735;28;20525;-82
2021/09/05 02:02:59;;;;;;;23.65;16.48;;;;;;;25.46;46.33;101676.09;4989855;28;20041;-80
2021/09/05 02:05:24;;;;;;;19.40;14.43;;;;;;;25.42;46.38;101678.06;4989703;28;20045;-77
2021/09/05 02:07:50;;;;;;;21.98;15.10;;;;;;;25.45;46.29;101676.47;4989760;28;20106;-78
2021/09/05 02:10:15;;;;;;;21.33;15.40;;;;;;;25.49;46.14;101676.50;4989569;28;20038;-78
2021/09/05 02:12:41;;;;;;;20.27;13.95;;;;;;;25.46;45.97;101673.28;4989512;28;20112;-78
2021/09/05 02:15:07;;;;;;;20.60;14.40;;;;;;;25.42;46.16;101677.28;4989650;28;20113;-78
2021/09/05 02:17:33;;;;;;;22.25;15.07;;;;;;;25.43;45.95;101671.28;4989665;28;20035;-81
2021/09/05 02:19:59;;;;;;;23.27;14.80;;;;;;;25.44;45.75;101670.09;4989492;28;20137;-81
2021/09/05 02:22:25;;;;;;;18.40;13.85;;;;;;;25.38;45.76;101677.25;4989674;28;20034;-78
2021/09/05 02:24:50;;;;;;;20.40;14.02;;;;;;;25.40;45.77;101669.28;4987821;28;20047;-78
2021/09/05 02:27:16;;;;;;;23.23;15.05;;;;;;;25.43;45.70;101674.06;4989374;28;20053;-81
2021/09/05 02:29:41;;;;;;;24.95;14.35;;;;;;;25.43;45.60;101671.28;4989454;28;20042;-80
2021/09/05 02:32:07;;;;;;;15.23;12.88;;;;;;;25.35;45.88;101668.84;4989215;28;20062;-78
2021/09/05 02:34:33;;;;;;;16.23;13.20;;;;;;;25.40;45.51;101674.06;4989360;28;20484;-78
2021/09/05 02:36:59;;;;;;;18.63;14.00;;;;;;;25.32;45.57;101675.22;4990315;28;20113;-78
2021/09/05 02:39:26;;;;;;;19.33;13.25;;;;;;;25.29;45.50;101674.00;4992903;28;20500;-81
2021/09/05 02:41:51;;;;;;;17.35;14.18;;;;;;;25.25;45.75;101672.41;4992705;28;20442;-78
2021/09/05 02:44:17;;;;;;;19.05;13.93;;;;;;;25.29;45.63;101674.00;4992835;28;20110;-80
2021/09/05 02:46:42;;;;;;;19.80;13.70;;;;;;;25.34;45.71;101686.81;4992674;28;20110;-81
2021/09/05 02:49:08;;;;;;;20.75;13.52;;;;;;;25.36;45.27;101678.84;4992514;28;20465;-80
2021/09/05 02:51:35;;;;;;;21.70;14.38;;;;;;;25.33;45.57;101674.03;4992436;28;20072;-81
2021/09/05 02:54:00;;;;;;;22.30;13.63;;;;;;;25.36;45.49;101676.03;4992512;28;20033;-82
2021/09/05 02:56:26;;;;;;;17.30;13.02;;;;;;;25.41;45.54;101678.47;4992451;28;20042;-81
2021/09/05 02:58:51;;;;;;;20.75;14.68;;;;;;;25.34;45.26;101682.03;4992471;28;20111;-81
2021/09/05 03:01:17;;;;;;;18.50;12.85;;;;;;;25.37;45.31;101672.84;4992350;28;20151;-80
2021/09/05 03:03:42;;;;;;;16.80;12.50;;;;;;;25.37;45.21;101674.84;4992469;28;20067;-79
2021/09/05 03:06:08;;;;;;;14.30;12.05;;;;;;;25.34;45.47;101662.44;4989959;28;20066;-79
2021/09/05 03:08:33;;;;;;;19.63;12.35;;;;;;;25.33;45.60;101669.25;4991319;28;20117;-79
2021/09/05 03:10:59;;;;;;;21.40;14.07;;;;;;;25.31;45.51;101668.81;4991575;28;20038;-78
2021/09/05 03:13:25;;;;;;;21.08;14.65;;;;;;;25.30;45.47;101664.41;4992251;28;20034;-80
2021/09/05 03:15:50;;;;;;;19.35;13.63;;;;;;;25.33;45.49;101680.44;4992218;28;20034;-78
2021/09/05 03:18:16;;;;;;;20.52;13.48;;;;;;;25.39;45.19;101675.25;4992108;28;20034;-77
2021/09/05 03:20:41;;;;;;;24.02;14.02;;;;;;;25.27;45.33;101681.19;4992227;28;20206;-81
2021/09/05 03:23:07;;;;;;;16.20;13.05;;;;;;;25.30;45.59;101681.19;4992003;28;20027;-81
2021/09/05 03:25:33;;;;;;;19.50;14.27;;;;;;;25.26;45.58;101674.00;4991805;28;20046;-78
2021/09/05 03:27:58;;;;;;;17.17;12.68;;;;;;;25.25;45.56;101673.19;4991904;28;20026;-81
2021/09/05 03:30:24;;;;;;;21.17;12.95;;;;;;;25.22;45.40;101673.97;4991912;28;20034;-79
2021/09/05 03:32:49;;;;;;;18.20;13.68;;;;;;;25.30;45.45;101672.81;4991884;28;20034;-78
2021/09/05 03:35:15;;;;;;;21.42;13.57;;;;;;;25.27;45.43;101682.00;4991764;28;20084;-80
2021/09/05 03:37:40;;;;;;;20.58;13.55;;;;;;;25.18;45.35;101673.97;4991759;28;20037;-78
2021/09/05 03:40:07;;;;;;;24.65;14.07;;;;;;;25.24;45.27;101667.97;4991943;28;20034;-79
2021/09/05 03:42:33;;;;;;;19.15;12.88;;;;;;;25.13;45.60;101673.53;4991999;28;20068;-82
2021/09/05 03:44:58;;;;;;;19.90;12.35;;;;;;;24.94;46.13;101670.94;4991739;28;20054;-78
2021/09/05 03:47:24;;;;;;;18.70;12.85;;;;;;;25.01;45.64;101674.59;4991669;28;20031;-79
2021/09/05 03:49:50;;;;;;;25.55;14.32;;;;;;;25.00;45.69;101684.19;4990787;28;20042;-80
2021/09/05 03:52:16;;;;;;;19.00;13.90;;;;;;;24.96;45.82;101682.56;4991823;28;20058;-78
2021/09/05 03:54:42;;;;;;;18.75;12.75;;;;;;;24.99;45.60;101676.19;4991488;28;20140;-78
2021/09/05 03:57:07;;;;;;;18.48;13.85;;;;;;;25.01;45.79;101684.97;4991328;28;20030;-78
2021/09/05 03:59:33;;;;;;;18.27;13.00;;;;;;;24.97;45.59;101687.75;4991575;28;20471;-78
2021/09/05 04:01:59;;;;;;;22.38;13.43;;;;;;;24.96;46.01;101682.56;4991578;28;20109;-78
2021/09/05 04:04:25;;;;;;;20.70;13.90;;;;;;;24.89;45.69;101684.13;4991431;28;20027;-81
2021/09/05 04:07:00;;;;;;;19.83;13.50;;;;;;;24.87;45.88;101686.50;4991469;28;20026;-79
2021/09/05 04:12:12;;;;;;;20.90;13.75;;;;;;;24.74;46.21;101684.41;4991395;28;20062;-81
2021/09/05 04:14:38;;;;;;;21.45;13.30;;;;;;;24.76;46.32;101679.22;4991052;28;20465;-77
2021/09/05 04:17:04;;;;;;;20.05;13.32;;;;;;;24.76;46.42;101693.19;4989762;28;20125;-82
2021/09/05 04:19:29;;;;;;;21.20;12.77;;;;;;;24.77;46.16;101686.41;4991049;28;20156;-81
2021/09/05 04:21:55;;;;;;;17.25;12.88;;;;;;;24.80;46.22;101692.03;4991109;28;20054;-80
2021/09/05 04:24:21;;;;;;;23.08;13.23;;;;;;;24.79;46.35;101700.81;4990768;28;20137;-79
2021/09/05 04:26:47;;;;;;;19.13;12.43;;;;;;;24.77;46.54;101692.78;4991278;28;20033;-77
2021/09/05 04:29:13;;;;;;;21.90;11.88;;;;;;;24.77;46.57;101686.41;4991047;28;20026;-81
2021/09/05 04:31:38;;;;;;;16.42;12.20;;;;;;;24.80;46.46;101691.25;4990820;28;20042;-81
2021/09/05 04:34:04;;;;;;;22.52;13.07;;;;;;;24.76;46.60;101694.00;4991121;28;20037;-81
2021/09/05 04:36:29;;;;;;;17.65;11.27;;;;;;;24.76;46.45;101699.59;4991027;28;20180;-79
2021/09/05 04:38:55;;;;;;;17.40;11.73;;;;;;;24.80;46.51;101697.63;4991111;28;20096;-81
2021/09/05 04:41:20;;;;;;;20.15;12.40;;;;;;;24.80;46.27;101696.84;4991016;28;20030;-78
2021/09/05 04:43:46;;;;;;;17.52;12.00;;;;;;;24.80;46.31;101699.63;4990960;28;20039;-77
2021/09/05 04:46:11;;;;;;;23.25;13.02;;;;;;;24.75;46.76;101705.56;4989861;28;20080;-81
2021/09/05 04:48:37;;;;;;;19.95;12.85;;;;;;;24.78;46.44;101702.78;4990819;28;20030;-78
2021/09/05 04:51:03;;;;;;;17.67;11.38;;;;;;;24.73;46.46;101719.13;4990811;28;20042;-82
2021/09/05 04:53:28;;;;;;;18.05;12.48;;;;;;;24.78;46.67;101716.75;4990751;28;20067;-80
2021/09/05 04:55:54;;;;;;;18.13;12.27;;;;;;;24.87;46.12;101713.66;4990579;28;20434;-80
2021/09/05 04:58:19;;;;;;;24.58;13.38;;;;;;;24.89;46.43;101723.25;4990675;28;20022;-79
2021/09/05 05:00:45;;;;;;;18.38;12.32;;;;;;;24.92;46.32;101707.69;4990516;28;20109;-81
2021/09/05 05:03:10;;;;;;;19.52;12.93;;;;;;;24.95;46.30;101715.31;4989376;28;20034;-79
2021/09/05 05:05:38;;;;;;;19.92;12.55;;;;;;;24.94;46.17;101715.69;4989406;28;20030;-79
2021/09/05 05:08:04;;;;;;;22.38;12.07;;;;;;;25.01;46.19;101718.53;4990454;28;20056;-79
2021/09/05 05:10:30;;;;;;;20.23;12.85;;;;;;;25.00;46.24;101714.94;4990390;28;20042;-81
2021/09/05 05:12:55;;;;;;;17.92;12.52;;;;;;;24.98;46.40;101711.72;4990571;28;20097;-81
2021/09/05 05:15:21;;;;;;;19.30;12.05;;;;;;;24.97;46.22;101712.13;4990388;28;20041;-78
2021/09/05 05:17:47;;;;;;;19.83;12.50;;;;;;;24.91;46.46;101715.28;4990306;28;20763;-80
2021/09/05 05:20:12;;;;;;;19.60;11.48;;;;;;;24.95;46.30;101715.31;4989778;28;20481;-77
2021/09/05 05:22:39;;;;;;;20.65;11.80;;;;;;;24.96;46.35;101716.91;5021768;28;20370;-77
2021/09/05 05:25:06;;;;;;;22.63;12.80;;;;;;;24.91;46.03;101712.47;4989793;28;20057;-79
2021/09/05 05:27:31;;;;;;;23.08;12.50;;;;;;;24.95;46.25;101714.50;4988922;28;20030;-78
2021/09/05 05:29:57;;;;;;;25.13;12.50;;;;;;;25.07;45.92;101717.81;4988268;28;20378;-76
2021/09/05 05:32:23;;;;;;;19.20;12.63;;;;;;;25.01;46.14;101719.31;4990022;28;20465;-78
2021/09/05 05:34:48;;;;;;;16.55;11.02;;;;;;;25.00;46.46;101720.53;4988840;28;20488;-81
2021/09/05 05:37:14;;;;;;;19.77;12.27;;;;;;;25.00;46.28;101722.53;4989989;28;20065;-80
2021/09/05 05:39:40;;;;;;;20.42;12.10;;;;;;;25.00;46.13;101723.31;4990271;28;20031;-80
2021/09/05 05:42:06;;;;;;;17.45;12.38;;;;;;;24.96;46.55;101727.28;4990209;28;20030;-80
2021/09/05 05:44:32;;;;;;;21.45;12.48;;;;;;;24.97;46.57;101735.28;4988637;28;20031;-80
2021/09/05 05:46:58;;;;;;;21.00;12.40;;;;;;;24.95;46.72;101750.84;4990174;28;20109;-79
2021/09/05 05:49:23;;;;;;;19.05;12.70;;;;;;;24.96;46.62;101738.47;4989886;28;20113;-81
2021/09/05 05:51:49;;;;;;;16.55;11.77;;;;;;;25.00;46.38;101754.06;4988676;28;20037;-78
2021/09/05 05:54:15;;;;;;;22.73;11.45;;;;;;;24.98;46.35;101753.66;4989998;28;20026;-78
2021/09/05 05:56:45;;;;;;;22.20;12.35;;;;;;;25.08;46.15;101740.97;4989951;28;20228;-80
2021/09/05 05:59:11;;;;;;;19.23;11.88;;;;;;;24.97;46.38;101752.06;4990004;28;20083;-78
2021/09/05 06:01:41;;;;;;;25.27;11.98;;;;;;;25.12;46.21;101745.41;4988456;28;20472;-79
2021/09/05 06:04:06;;;;;;;17.10;11.25;;;;;;;25.13;46.05;101757.41;4989897;28;20034;-80
2021/09/05 06:06:33;;;;;;;20.52;12.05;;;;;;;25.10;46.21;101758.19;4989841;28;20033;-78
2021/09/05 06:09:00;;;;;;;23.02;12.27;;;;;;;25.16;46.17;101749.06;4989729;28;20026;-78
2021/09/05 06:11:26;;;;;;;19.85;13.02;;;;;;;25.20;46.07;101759.47;4990008;28;20034;-79
2021/09/05 06:13:52;;;;;;;18.90;11.77;;;;;;;25.16;46.18;101774.22;4993193;28;20026;-78
2021/09/05 06:16:17;;;;;;;14.85;11.18;;;;;;;25.22;46.02;101773.84;4992752;28;20105;-80
2021/09/05 06:18:43;;;;;;;19.92;11.57;;;;;;;25.24;45.89;101769.50;4993118;28;20482;-77
2021/09/05 06:21:08;;;;;;;21.77;11.40;;;;;;;25.24;45.65;101774.25;4992778;28;20030;-78
2021/09/05 06:23:34;;;;;;;22.85;11.48;;;;;;;25.18;45.87;101766.25;4993082;28;20109;-82
2021/09/05 06:25:59;;;;;;;20.52;12.10;;;;;;;25.26;45.98;101764.31;4992721;28;20047;-81
2021/09/05 06:28:25;;;;;;;26.38;12.07;;;;;;;25.28;45.40;101767.50;4992952;28;20057;-80
2021/09/05 06:30:51;;;;;;;31.13;14.30;;;;;;;25.31;45.77;101765.91;4992617;28;20069;-79
2021/09/05 06:33:16;;;;;;;17.63;10.63;;;;;;;25.35;45.46;101772.34;4992759;28;20053;-80
2021/09/05 06:35:42;;;;;;;22.05;12.82;;;;;;;25.37;45.33;101770.75;4991327;28;20018;-78
2021/09/05 06:38:08;;;;;;;21.85;11.00;;;;;;;25.41;45.20;101771.59;5024083;28;20121;-79
2021/09/05 06:40:33;;;;;;;18.50;12.25;;;;;;;25.35;45.31;101766.75;4990713;28;20058;-78
2021/09/05 06:42:59;;;;;;;15.85;11.73;;;;;;;25.41;45.46;101771.59;4990846;28;20087;-79
2021/09/05 06:45:24;;;;;;;20.13;11.90;;;;;;;25.44;45.47;101768.00;4991483;28;20030;-77
2021/09/05 06:47:50;;;;;;;16.88;10.00;;;;;;;25.44;45.17;101770.00;4990691;28;20087;-78
2021/09/05 06:50:15;;;;;;;17.00;10.40;;;;;;;25.35;45.56;101767.56;4991904;28;20038;-78
2021/09/05 06:52:41;;;;;;;22.33;12.10;;;;;;;25.48;45.57;101781.22;4992508;28;20030;-73
2021/09/05 06:55:07;;;;;;;17.45;11.77;;;;;;;25.47;45.30;101783.22;4991487;28;20405;-76
2021/09/05 06:57:32;;;;;;;18.65;11.10;;;;;;;25.45;45.39;101789.19;4992993;28;20056;-85
2021/09/05 06:59:58;;;;;;;20.65;12.27;;;;;;;25.48;45.24;101781.22;4992893;28;20079;-80
2021/09/05 07:02:25;;;;;;;17.30;12.40;;;;;;;25.48;45.23;101784.84;4991672;28;20041;-85
2021/09/05 07:04:51;;;;;;;24.48;12.32;;;;;;;25.56;45.02;101785.69;4992839;28;20105;-80
2021/09/05 07:07:16;;;;;;;18.80;10.77;;;;;;;25.45;45.56;101791.19;4991098;28;20121;-75
2021/09/05 07:09:42;;;;;;;15.35;10.90;;;;;;;25.53;45.65;101797.63;4990633;28;20030;-74
2021/09/05 07:12:08;;;;;;;14.85;10.00;;;;;;;25.66;45.01;101801.72;4990614;28;20097;-74
2021/09/05 07:14:34;;;;;;;17.73;11.80;;;;;;;25.61;45.20;101805.69;4991912;28;20473;-74
2021/09/05 07:16:59;;;;;;;20.23;10.55;;;;;;;25.76;44.87;101806.59;4990723;28;20041;-74
2021/09/05 07:19:25;;;;;;;18.92;12.10;;;;;;;25.86;44.45;101803.06;4990659;28;20041;-74
2021/09/05 07:21:50;;;;;;;14.55;10.32;;;;;;;25.87;44.57;101804.66;4991450;28;20453;-73
2021/09/05 07:24:16;;;;;;;16.73;11.90;;;;;;;26.05;44.38;101806.75;4990486;28;20042;-83
2021/09/05 07:26:42;;;;;;;13.55;10.68;;;;;;;26.17;44.19;101795.19;4991565;28;20038;-74
2021/09/05 07:29:07;;;;;;;20.77;11.55;;;;;;;26.10;44.12;101812.78;4991500;28;20041;-74
2021/09/05 07:31:33;;;;;;;18.58;10.57;;;;;;;26.25;43.54;101808.81;4991212;28;20461;-75
2021/09/05 07:33:59;;;;;;;20.13;11.80;;;;;;;26.34;43.49;101816.84;4991146;28;20038;-74
2021/09/05 07:36:24;;;;;;;24.02;12.40;;;;;;;26.22;43.63;101806.81;4991188;28;20030;-82
2021/09/05 07:38:51;;;;;;;15.40;11.50;;;;;;;26.46;43.02;101804.53;4990351;28;20045;-74
2021/09/05 07:41:17;;;;;;;15.43;10.85;;;;;;;26.52;42.75;101814.13;4991472;28;20121;-83
2021/09/05 07:43:43;;;;;;;19.55;12.20;;;;;;;26.53;42.69;101821.38;4990176;28;20069;-75
2021/09/05 07:46:08;;;;;;;14.52;11.85;;;;;;;26.65;42.25;101820.16;4991622;28;20062;-74
2021/09/05 07:48:34;;;;;;;17.33;11.43;;;;;;;26.58;42.51;101825.75;4990006;28;20031;-74
2021/09/05 07:50:59;;;;;;;21.77;12.30;;;;;;;26.61;41.90;101824.97;4991317;28;20428;-86
2021/09/05 07:53:25;;;;;;;17.80;12.55;;;;;;;26.50;42.40;101831.34;4992389;28;20026;-75
2021/09/05 07:55:51;;;;;;;22.55;10.25;;;;;;;26.66;41.91;101828.19;4991420;28;20030;-79
2021/09/05 07:58:16;;;;;;;18.80;12.15;;;;;;;26.70;41.71;101829.00;4991519;28;20160;-75
2021/09/05 08:00:42;;;;;;;19.42;12.13;;;;;;;26.62;42.02;101821.78;4991114;28;20030;-75
2021/09/05 08:03:08;;;;;;;16.98;12.15;;;;;;;26.67;41.99;101826.16;4990970;28;20060;-75
2021/09/05 08:05:33;;;;;;;16.77;11.95;;;;;;;26.66;41.82;101821.78;4991245;28;20136;-74
2021/09/05 08:07:59;;;;;;;17.38;11.73;;;;;;;26.73;41.89;101811.38;4991467;28;20057;-78
2021/09/05 08:10:25;;;;;;;20.20;13.25;;;;;;;26.75;41.54;101809.00;4991706;28;20038;-84
2021/09/05 08:12:52;;;;;;;20.25;12.75;;;;;;;26.89;41.29;101810.19;4991150;28;20030;-83
2021/09/05 08:15:17;;;;;;;15.65;13.07;;;;;;;26.87;41.46;101813.38;4991007;28;20384;-79
2021/09/05 08:17:43;;;;;;;18.65;12.60;;;;;;;26.94;41.43;101813.41;4991801;28;20026;-85
2021/09/05 08:20:10;;;;;;;18.65;13.02;;;;;;;27.04;41.27;101817.44;4990074;28;20049;-82
2021/09/05 08:22:36;;;;;;;19.45;13.32;;;;;;;27.06;41.48;101810.25;4989909;28;20038;-84
2021/09/05 08:25:02;;;;;;;19.27;12.63;;;;;;;27.12;41.64;101805.00;4990735;28;20112;-85
2021/09/05 08:27:27;;;;;;;18.15;13.20;;;;;;;27.35;41.32;101813.00;4990790;28;20035;-84
2021/09/05 08:29:53;;;;;;;24.80;13.75;;;;;;;27.48;40.90;101816.22;4991224;28;20042;-87
2021/09/05 08:32:18;;;;;;;20.63;13.25;;;;;;;27.55;40.77;101813.38;4989923;28;20039;-74
2021/09/05 08:34:44;;;;;;;19.25;13.40;;;;;;;27.53;40.96;101815.81;4989943;28;20091;-73
2021/09/05 08:37:09;;;;;;;22.80;14.02;;;;;;;27.62;40.52;101810.56;4990946;28;20088;-73
2021/09/05 08:39:35;;;;;;;20.55;13.55;;;;;;;27.44;40.82;101809.81;4991249;28;20088;-90
2021/09/05 08:42:01;;;;;;;20.17;13.05;;;;;;;27.75;40.05;101808.97;4990994;28;20041;-81
2021/09/05 08:44:27;;;;;;;19.35;14.70;;;;;;;27.71;40.33;101813.78;4991113;28;20064;-83
2021/09/05 08:46:54;;;;;;;21.33;14.63;;;;;;;27.63;40.28;101815.78;4989792;28;20038;-84
2021/09/05 08:49:32;;;;;;;21.25;13.63;;;;;;;27.52;40.27;101805.78;4990530;28;20030;-74
2021/09/05 08:51:57;;;;;;;20.90;14.02;;;;;;;27.43;40.46;101806.19;4990795;28;20030;-88
2021/09/05 08:54:23;;;;;;;21.55;15.05;;;;;;;27.53;40.37;101813.78;4990025;28;20028;-75
2021/09/05 08:56:50;;;;;;;27.55;14.27;;;;;;;27.62;40.04;101811.38;4990607;28;20495;-93
2021/09/05 08:59:16;;;;;;;20.23;12.73;;;;;;;27.72;40.30;101814.56;4990438;28;20038;-74
2021/09/05 09:01:52;;;;;;;20.15;14.85;;;;;;;27.68;40.50;101811.78;4990299;28;20065;-74
2021/09/05 09:04:18;;;;;;;22.65;14.35;;;;;;;27.73;40.52;101804.94;4990496;28;20022;-73
2021/09/05 09:06:44;;;;;;;18.42;14.85;;;;;;;27.82;40.55;101811.75;4990203;28;20045;-74
2021/09/05 09:09:11;;;;;;;21.75;13.73;;;;;;;27.80;40.75;101796.50;4990138;28;20042;-74
2021/09/05 09:11:54;;;;;;;23.13;13.02;;;;;;;27.72;40.82;101806.16;4990173;28;20485;-74
2021/09/05 09:14:24;;;;;;;19.20;13.65;;;;;;;27.68;41.05;101803.38;4989954;28;20034;-75
2021/09/05 09:16:50;;;;;;;18.58;13.50;;;;;;;27.99;40.41;101796.03;4990291;28;20087;-77
2021/09/05 09:19:23;;;;;;;21.83;13.05;;;;;;;28.22;40.35;101803.16;4990021;28;20041;-76
2021/09/05 09:21:49;;;;;;;25.45;14.88;;;;;;;28.15;40.63;101807.59;4990937;28;20037;-75
2021/09/05 09:24:18;;;;;;;21.15;13.82;;;;;;;28.34;39.97;101805.53;4990288;28;20046;-91
2021/09/05 09:27:04;;;;;;;20.30;14.07;;;;;;;28.10;40.72;101810.03;4990334;28;20054;-75
2021/09/05 09:29:31;;;;;;;20.92;12.70;;;;;;;28.26;40.74;101810.34;4990245;28;20030;-75
2021/09/05 09:32:04;;;;;;;17.08;13.35;;;;;;;28.43;40.50;101805.91;4990059;28;20117;-77
2021/09/05 09:34:40;;;;;;;16.73;13.25;;;;;;;28.53;40.40;101815.47;4990325;28;20058;-73
2021/09/05 09:37:17;;;;;;;18.55;13.32;;;;;;;28.39;40.52;101810.72;4990120;28;20049;-88
2021/09/05 09:39:58;;;;;;;20.05;14.13;;;;;;;28.55;40.23;101815.84;4989797;28;20099;-74
2021/09/05 09:42:40;;;;;;;25.13;13.48;;;;;;;28.41;40.20;101811.09;4988992;28;20488;-75
2021/09/05 09:45:12;;;;;;;22.35;15.13;;;;;;;28.46;40.13;101810.69;4987764;28;20596;-73
2021/09/05 09:47:59;;;;;;;24.58;15.32;;;;;;;28.40;39.80;101810.31;4988368;28;20041;-91
2021/09/05 09:50:25;;;;;;;19.80;13.95;;;;;;;28.62;40.12;101808.16;4986878;28;20058;-76
2021/09/05 09:52:52;;;;;;;20.08;14.55;;;;;;;28.59;40.03;101813.81;4987240;28;20027;-77
2021/09/05 09:55:17;;;;;;;23.35;13.80;;;;;;;28.70;39.79;101806.09;4988438;28;20075;-76
2021/09/05 09:57:43;;;;;;;22.80;13.85;;;;;;;28.83;39.79;101823.31;4987043;28;20477;-75
2021/09/05 10:00:09;;;;;;;22.52;14.38;;;;;;;28.82;39.36;101816.88;4988224;28;20045;-75
2021/09/05 10:02:39;;;;;;;23.67;14.43;;;;;;;28.72;40.02;101815.75;4988561;28;20067;-73
2021/09/05 10:05:05;;;;;;;19.15;14.52;;;;;;;28.67;40.23;101810.56;4988472;28;20481;-73
2021/09/05 10:07:33;;;;;;;21.60;13.70;;;;;;;28.63;39.98;101815.38;4990076;28;20038;-73
2021/09/05 10:10:03;;;;;;;18.42;14.18;;;;;;;28.75;40.17;101814.13;4990171;28;20080;-74
2021/09/05 10:12:30;;;;;;;27.70;14.75;;;;;;;28.65;40.21;101818.59;4989414;28;20030;-73
2021/09/05 10:14:57;;;;;;;20.38;14.32;;;;;;;28.47;40.59;101809.47;4989735;28;20026;-88
2021/09/05 10:17:24;;;;;;;27.02;14.90;;;;;;;28.38;40.50;101817.56;4990348;28;20030;-91
2021/09/05 10:19:51;;;;;;;29.75;15.70;;;;;;;28.32;40.54;101820.00;4989723;28;20033;-89
2021/09/05 10:22:20;;;;;;;21.70;15.65;;;;;;;28.14;40.98;101814.44;4989587;28;20030;-73
2021/09/05 10:24:51;;;;;;;23.83;16.42;;;;;;;28.20;40.96;101812.81;4989523;28;20792;-72
2021/09/05 10:27:29;;;;;;;22.98;16.83;;;;;;;28.40;41.01;101809.50;4989180;28;20034;-73
2021/09/05 10:30:07;;;;;;;23.73;16.27;;;;;;;28.54;40.94;101815.06;4989437;28;20026;-73
2021/09/05 10:32:49;;;;;;;26.13;17.80;;;;;;;28.38;41.17;101811.94;4988230;28;20511;-81
2021/09/05 10:35:47;;;;;;;24.42;16.13;;;;;;;28.61;40.84;101814.22;4988316;28;20370;-81
2021/09/05 10:38:18;;;;;;;23.33;17.38;;;;;;;28.79;40.46;101808.44;4990036;28;20027;-86
2021/09/05 10:41:04;;;;;;;32.28;19.05;;;;;;;28.99;40.44;101817.97;4988121;28;20022;-72
2021/09/05 10:44:08;;;;;;;23.67;15.73;;;;;;;29.03;40.48;101824.41;4992418;28;20408;-79
2021/09/05 10:46:41;;;;;;;28.48;16.67;;;;;;;29.31;39.93;101817.69;5009586;28;20053;-73
2021/09/05 10:49:08;;;;;;;32.80;17.88;;;;;;;29.47;40.07;101820.78;4991948;28;20046;-73
2021/09/05 10:51:48;;;;;;;28.30;17.75;;;;;;;29.51;39.73;101820.75;4988790;28;20026;-73
2021/09/05 10:54:27;;;;;;;23.65;17.13;;;;;;;29.60;39.19;101826.69;4988003;28;20786;-74
2021/09/05 10:56:57;;;;;;;24.42;16.88;;;;;;;29.79;39.13;101830.94;4989142;28;20087;-73
2021/09/05 10:59:24;;;;;;;23.27;17.33;;;;;;;29.81;39.07;101832.09;4990522;28;20096;-74
2021/09/05 11:01:50;;;;;;;28.05;17.67;;;;;;;30.02;38.63;101828.25;4992760;28;20637;-90
2021/09/05 11:04:16;;;;;;;27.85;16.02;;;;;;;30.03;38.51;101829.03;4991130;28;20033;-91
2021/09/05 11:07:02;;;;;;;28.63;17.90;;;;;;;29.92;38.68;101822.72;4992232;28;20023;-73
2021/09/05 11:09:28;;;;;;;33.05;17.20;;;;;;;29.99;38.37;101822.63;4992050;28;20423;-87
2021/09/05 11:12:23;;;;;;;27.15;16.65;;;;;;;30.11;38.32;101825.72;4992096;28;20034;-74